Burewala Weather



Burewala's Current Weather

Temprature 39.1o scattered clouds

scattered clouds

Rain: 0 %

Min Temprature39.1o
Max Temprature39.1o
Humidity34
Wind Speed5.23 m/h
Sun Rise05:35:30
Sun Set18:53:10
Current Time: 13-Aug-2020 19:51:49
Lat/Lon: 30.17, 72.65




Burewala's Geo Location



Burewala's Weather Forecast

Time Overall Temp Min Temp Max Temp Humidity Wind Speed Rain
13-Aug-2020 (Thu)
20:00:00 few clouds 41.070 39.100 41.070 31 5.23 m/h 0 %
23:00:00 scattered clouds 37.630 36.160 37.630 42 5.89 m/h 0 %
14-Aug-2020 (Fri)
02:00:00 overcast clouds 35.100 34.560 35.100 50 3.93 m/h 0 %
05:00:00 light rain 33.860 33.790 33.860 55 4.57 m/h 16 %
08:00:00 broken clouds 35.560 35.560 35.560 50 4.07 m/h 0 %
11:00:00 scattered clouds 40.350 40.350 40.350 36 1.69 m/h 0 %
14:00:00 scattered clouds 41.670 41.670 41.670 32 2.35 m/h 0 %
17:00:00 light rain 38.120 38.120 38.120 41 1.64 m/h 74 %
20:00:00 scattered clouds 36.130 36.130 36.130 46 1.77 m/h 0 %
23:00:00 few clouds 34.560 34.560 34.560 51 2.49 m/h 0 %
15-Aug-2020 (Sat)
02:00:00 light rain 33.820 33.820 33.820 54 2.56 m/h 27 %
05:00:00 light rain 32.030 32.030 32.030 62 3.06 m/h 177 %
08:00:00 scattered clouds 35.480 35.480 35.480 50 2.7 m/h 0 %
11:00:00 scattered clouds 40.300 40.300 40.300 34 2.84 m/h 0 %
14:00:00 few clouds 42.850 42.850 42.850 28 2.85 m/h 0 %
17:00:00 light rain 39.010 39.010 39.010 38 4.32 m/h 22 %
20:00:00 few clouds 37.300 37.300 37.300 40 2.56 m/h 0 %
23:00:00 few clouds 36.410 36.410 36.410 42 4.01 m/h 0 %
16-Aug-2020 (Sun)
02:00:00 light rain 34.620 34.620 34.620 49 3.02 m/h 16 %
05:00:00 few clouds 34.310 34.310 34.310 51 2.33 m/h 0 %
08:00:00 clear sky 36.900 36.900 36.900 44 3.46 m/h 0 %
11:00:00 scattered clouds 39.820 39.820 39.820 36 3.2 m/h 0 %
14:00:00 few clouds 43.360 43.360 43.360 28 3.8 m/h 0 %
17:00:00 light rain 36.470 36.470 36.470 44 1.43 m/h 59 %
20:00:00 light rain 36.430 36.430 36.430 43 3.19 m/h 68 %
23:00:00 scattered clouds 34.590 34.590 34.590 52 4.03 m/h 0 %
17-Aug-2020 (Mon)
02:00:00 clear sky 34.560 34.560 34.560 49 2.98 m/h 0 %
05:00:00 clear sky 33.680 33.680 33.680 52 3.46 m/h 0 %
08:00:00 scattered clouds 35.460 35.460 35.460 49 5.63 m/h 0 %
11:00:00 scattered clouds 39.150 39.150 39.150 38 5.55 m/h 0 %
14:00:00 scattered clouds 42.250 42.250 42.250 30 4.39 m/h 0 %
17:00:00 scattered clouds 40.420 40.420 40.420 32 4.78 m/h 0 %
20:00:00 overcast clouds 37.140 37.140 37.140 39 4.37 m/h 0 %
23:00:00 overcast clouds 34.940 34.940 34.940 47 7.2 m/h 0 %
18-Aug-2020 (Tue)
02:00:00 overcast clouds 33.170 33.170 33.170 54 4.22 m/h 0 %
05:00:00 light rain 31.720 31.720 31.720 59 4.01 m/h 48 %
08:00:00 few clouds 34.570 34.570 34.570 50 5.35 m/h 0 %
11:00:00 clear sky 39.690 39.690 39.690 37 5.37 m/h 0 %
14:00:00 clear sky 41.730 41.730 41.730 33 4.62 m/h 0 %
17:00:00 scattered clouds 40.490 40.490 40.490 35 4.55 m/h 0 %


Burewala's Tourist Spots

Historical Places in Burewala

Famous Cities (60)